Terminal Aerodrome Forecast
Issued by NWS Atlanta, GA

Home | Current Version | Previous Version | Text Only | Print | Product List | Glossary On
Versions: 1 2 3 4 5 6 7 8 9 10 11 12 13 14 15 16 17 18 19 20 21 22 23 24 25 26 27 28 29 30 31 32 33 34 35 36
000
FTUS42 KFFC 230900 AAB
TAFAHN
TAF AMD
KAHN 230955Z 2310/2406 00000KT 5SM BR SCT007 BKN035
      TEMPO 2310/2314 OVC007
     FM231400 00000KT P6SM BKN035
     FM231700 25005KT P6SM VCSH SCT035 BKN050 PROB30 2319/2323 4SM
      -TSRA BR BKN035CB
     FM240000 25003KT P6SM SCT040 SCT080=

USA.gov is the U.S. government's official web portal to all federal, state and local government web resources and services.